Time;durP1;ratioP1;P1;durP2;ratioP2;P2;SDS_P1;SDS_P2;PMS_P1;PMS_P2;Temp;Humidity;BMP_temperature;BMP_pressure;BME280_temperature;BME280_humidity;BME280_pressure;Samples;Min_cycle;Max_cycle;Signal;HPM_P1;HPM_P2
2022/01/27 04:15:18;;;;;;;;;;;;;;;2.51;96.50;100951.69;4982497;23;19930;-83
2022/01/27 04:17:44;;;;;;;;;;;;;;;2.43;96.09;100950.75;4974652;28;19926;-83
2022/01/27 04:20:09;;;;;;;;;;;;;;;2.40;95.79;100955.09;4974057;28;20000;-83
2022/01/27 04:22:34;;;;;;;;;;;;;;;2.41;95.37;100957.72;4992549;28;19926;-83
2022/01/27 04:24:59;;;;;;;;;;;;;;;2.29;94.74;100950.63;4992483;28;19971;-83
2022/01/27 04:27:30;;;;;;;;;;;;;;;2.30;94.57;100955.00;4992388;28;19924;-89
2022/01/27 04:29:55;;;;;;;;;;;;;;;2.25;94.05;100964.56;4991221;28;20020;-83
2022/01/27 04:32:26;;;;;;;;;;;;;;;2.22;93.78;100963.63;4991220;28;20021;-85
2022/01/27 04:34:53;;;;;;;;;;;;;;;2.20;93.36;100963.59;4974384;28;19976;-84
2022/01/27 04:37:22;;;;;;;;;;;;;;;2.25;92.96;100969.78;4991508;28;19914;-86
2022/01/27 04:40:04;;;;;;;;;;;;;;;2.16;92.41;100975.78;4992342;28;19917;-85
2022/01/27 04:42:49;;;;;;;;;;;;;;;2.16;92.28;100978.38;4973986;28;19917;-85
2022/01/27 04:45:17;;;;;;;;;;;;;;;2.14;92.64;100974.91;4992073;28;19949;-89
2022/01/27 04:47:47;;;;;;;;;;;;;;;2.15;92.78;100971.44;4992237;28;19918;-84
2022/01/27 04:50:12;;;;;;;;;;;;;;;2.14;92.64;100971.41;4990796;28;19929;-84
2022/01/27 04:52:42;;;;;;;;;;;;;;;2.06;92.29;100975.66;4992170;28;19918;-84
2022/01/27 04:55:11;;;;;;;;;;;;;;;2.03;92.31;100976.53;4974943;28;20304;-83
2022/01/27 04:57:41;;;;;;;;;;;;;;;1.99;92.44;100970.38;4992000;28;19922;-84
2022/01/27 05:00:07;;;;;;;;;;;;;;;1.99;92.33;100974.72;4991137;28;19918;-84
2022/01/27 05:05:01;;;;;;;;;;;;;;;2.00;91.95;100976.47;4992178;28;19917;-84
2022/01/27 08:29:38;;;;;;;;;;;;;;;1.04;80.18;100906.50;5329459;23;19931;-84
2022/01/27 08:32:05;;;;;;;;;;;;;;;1.12;80.06;100914.41;4983848;28;20008;-83
2022/01/27 08:34:41;;;;;;;;;;;;;;;1.01;79.88;100916.88;4984224;28;19929;-85
2022/01/27 08:37:11;;;;;;;;;;;;;;;1.05;79.79;100918.66;5001709;28;19942;-86
2022/01/27 08:39:38;;;;;;;;;;;;;;;1.04;79.77;100923.03;5001062;28;19957;-84
2022/01/27 08:42:04;;;;;;;;;;;;;;;1.09;79.47;100912.66;5001804;28;20380;-82
2022/01/27 08:44:29;;;;;;;;;;;;;;;1.06;79.56;100925.66;5001380;28;19930;-83
2022/01/27 08:46:54;;;;;;;;;;;;;;;1.07;79.42;100928.28;5005520;28;19918;-84
2022/01/27 08:49:23;;;;;;;;;;;;;;;1.04;79.53;100928.25;4988082;28;19926;-83
2022/01/27 08:51:48;;;;;;;;;;;;;;;1.01;79.55;100922.97;4987744;28;20052;-84
2022/01/27 08:54:14;;;;;;;;;;;;;;;1.05;79.47;100909.13;5005634;28;20004;-85
2022/01/27 08:56:39;;;;;;;;;;;;;;;1.07;79.42;100914.38;5006270;28;19941;-86
2022/01/27 08:59:05;;;;;;;;;;;;;;;1.07;79.33;100919.59;5004439;28;19924;-86
2022/01/27 09:01:30;;;;;;;;;;;;;;;1.09;79.14;100904.81;4988297;28;19975;-84
2022/01/27 09:03:55;;;;;;;;;;;;;;;1.06;78.90;100904.78;4988095;28;19918;-86
2022/01/27 09:06:20;;;;;;;;;;;;;;;1.05;78.53;100900.41;5005126;28;19926;-84
2022/01/27 09:08:49;;;;;;;;;;;;;;;1.07;78.24;100896.97;4988434;28;19917;-85
2022/01/27 09:11:14;;;;;;;;;;;;;;;1.15;77.79;100897.06;4987700;28;19918;-84
2022/01/27 09:13:41;;;;;;;;;;;;;;;1.13;77.67;100901.38;4987037;28;19922;-84
2022/01/27 09:16:07;;;;;;;;;;;;;;;1.10;77.25;100903.94;4987841;28;20364;-85
2022/01/27 09:18:33;;;;;;;;;;;;;;;1.12;77.31;100898.75;5005503;28;19924;-85
2022/01/27 09:21:01;;;;;;;;;;;;;;;1.09;77.12;100900.47;4987285;28;19921;-85
2022/01/27 09:23:26;;;;;;;;;;;;;;;1.12;77.04;100909.19;4987814;28;20277;-85
2022/01/27 09:25:55;;;;;;;;;;;;;;;1.11;77.15;100912.69;5004955;28;19921;-86
2022/01/27 09:28:21;;;;;;;;;;;;;;;1.13;77.08;100914.44;4986760;28;20373;-86
2022/01/27 09:30:46;;;;;;;;;;;;;;;1.11;76.92;100923.97;5004887;28;19932;-86
2022/01/27 09:33:13;;;;;;;;;;;;;;;1.17;76.69;100921.47;5005536;28;19968;-85
2022/01/27 09:35:38;;;;;;;;;;;;;;;1.15;76.62;100925.78;5004648;28;19928;-85
2022/01/27 09:38:03;;;;;;;;;;;;;;;1.16;76.55;100918.81;5004264;28;20377;-86
2022/01/27 09:40:29;;;;;;;;;;;;;;;1.12;76.56;100911.78;5004799;28;19996;-86
2022/01/27 09:42:55;;;;;;;;;;;;;;;1.07;76.54;100924.81;5003735;28;20341;-86
2022/01/27 09:45:21;;;;;;;;;;;;;;;1.11;76.62;100930.94;4987739;28;19921;-85
2022/01/27 09:47:55;;;;;;;;;;;;;;;1.10;76.64;100927.44;5004534;28;19921;-85
2022/01/27 09:50:35;;;;;;;;;;;;;;;1.11;76.95;100934.44;4986921;28;19922;-85
2022/01/27 09:53:01;;;;;;;;;;;;;;;1.10;76.74;100932.66;4995359;28;19917;-85
2022/01/27 09:55:26;;;;;;;;;;;;;;;1.14;76.75;100938.81;5004364;28;19918;-86
2022/01/27 09:57:52;;;;;;;;;;;;;;;1.14;76.74;100920.56;4984823;28;19924;-86
2022/01/27 10:00:17;;;;;;;;;;;;;;;1.15;76.56;100928.41;4986637;28;20285;-86
2022/01/27 10:03:01;;;;;;;;;;;;;;;1.19;76.55;100921.47;4987368;28;19949;-86
2022/01/27 10:05:27;;;;;;;;;;;;;;;1.19;76.38;100922.34;5004548;28;20007;-85
2022/01/27 10:07:59;;;;;;;;;;;;;;;1.20;76.44;100929.34;4986007;28;20357;-86
2022/01/27 10:10:26;;;;;;;;;;;;;;;1.21;76.44;100935.44;5003418;28;19922;-86
2022/01/27 10:12:54;;;;;;;;;;;;;;;1.18;76.57;100936.28;5003166;28;20021;-85
2022/01/27 10:15:22;;;;;;;;;;;;;;;1.21;76.45;100931.09;5004150;28;19918;-86
2022/01/27 10:18:03;;;;;;;;;;;;;;;1.23;76.38;100933.72;5004159;28;19996;-85
2022/01/27 10:20:28;;;;;;;;;;;;;;;1.26;76.48;100934.66;4986764;28;20008;-85
2022/01/27 10:23:14;;;;;;;;;;;;;;;1.25;76.20;100925.03;5004065;28;20021;-86
2022/01/27 10:25:46;;;;;;;;;;;;;;;1.26;75.91;100925.91;4986592;28;19921;-85
2022/01/27 10:28:25;;;;;;;;;;;;;;;1.27;75.95;100920.72;5002777;28;20004;-85
2022/01/27 10:30:58;;;;;;;;;;;;;;;1.27;75.83;100915.50;5003842;28;19976;-86
2022/01/27 10:33:23;;;;;;;;;;;;;;;1.29;75.87;100922.47;5004648;28;19980;-86
2022/01/27 10:35:50;;;;;;;;;;;;;;;1.32;75.55;100914.69;4986053;28;20027;-86
2022/01/27 10:38:16;;;;;;;;;;;;;;;1.32;75.47;100918.16;5003609;28;20610;-85
2022/01/27 10:40:43;;;;;;;;;;;;;;;1.32;75.41;100917.31;5003932;28;19918;-85
2022/01/27 10:43:10;;;;;;;;;;;;;;;1.30;75.69;100919.88;5002267;28;19926;-86
2022/01/27 10:45:37;;;;;;;;;;;;;;;1.31;75.63;100920.75;4994067;28;20011;-85
2022/01/27 10:48:15;;;;;;;;;;;;;;;1.31;75.36;100912.91;5003684;28;19918;-86
2022/01/27 10:50:47;;;;;;;;;;;;;;;1.35;75.08;100904.28;4993867;28;20769;-86
2022/01/27 10:53:13;;;;;;;;;;;;;;;1.33;74.75;100903.41;4993946;28;19917;-86
2022/01/27 10:55:38;;;;;;;;;;;;;;;1.33;74.60;100899.03;5003641;28;19922;-85
2022/01/27 10:58:22;;;;;;;;;;;;;;;1.36;74.50;100904.31;5002436;28;19917;-86
2022/01/27 11:00:55;;;;;;;;;;;;;;;1.36;74.38;100898.22;4985819;28;20574;-85
2022/01/27 11:03:23;;;;;;;;;;;;;;;1.41;74.58;100896.53;5002950;28;20425;-86
2022/01/27 11:05:50;;;;;;;;;;;;;;;1.41;74.53;100901.75;4985611;28;19921;-86
2022/01/27 11:08:18;;;;;;;;;;;;;;;1.41;74.68;100897.41;4985346;28;20004;-85
2022/01/27 11:10:48;;;;;;;;;;;;;;;1.42;74.56;100885.19;4993526;28;19952;-87
2022/01/27 11:13:15;;;;;;;;;;;;;;;1.42;74.66;100888.72;5001671;28;19917;-85
2022/01/27 11:15:42;;;;;;;;;;;;;;;1.43;74.59;100884.34;5002700;28;20012;-86
2022/01/27 11:18:07;;;;;;;;;;;;;;;1.44;74.42;100865.22;5003611;28;19999;-86
2022/01/27 11:20:48;;;;;;;;;;;;;;;1.44;74.14;100868.69;4985105;28;19953;-86
2022/01/27 11:25:52;;;;;;;;;;;;;;;1.61;73.21;100857.56;5002862;28;19953;-86
2022/01/27 11:28:18;;;;;;;;;;;;;;;1.56;73.12;100852.28;5001695;28;19923;-86
2022/01/27 11:30:44;;;;;;;;;;;;;;;1.61;72.88;100845.38;5002836;28;20028;-86
2022/01/27 11:33:10;;;;;;;;;;;;;;;1.54;72.59;100843.56;5002447;28;19921;-86
2022/01/27 11:35:39;;;;;;;;;;;;;;;1.52;72.78;100840.06;5002701;28;19928;-86
2022/01/27 11:38:05;;;;;;;;;;;;;;;1.56;72.69;100839.22;4985401;28;19922;-86
2022/01/27 11:40:35;;;;;;;;;;;;;;;1.58;72.48;100845.34;5002365;28;19921;-87
2022/01/27 11:43:03;;;;;;;;;;;;;;;1.65;72.62;100848.03;4984897;28;19963;-86
2022/01/27 11:45:28;;;;;;;;;;;;;;;1.61;72.57;100850.63;4985569;28;20696;-86
2022/01/27 11:48:00;;;;;;;;;;;;;;;1.59;72.67;100859.28;4984967;28;19979;-86
2022/01/27 11:50:37;;;;;;;;;;;;;;;1.57;72.76;100856.66;5001754;28;19922;-86
2022/01/27 11:53:07;;;;;;;;;;;;;;;1.58;72.80;100847.06;5002350;28;20380;-85
2022/01/27 11:55:32;;;;;;;;;;;;;;;1.62;72.89;100856.72;4984155;28;19984;-86
2022/01/27 11:57:59;;;;;;;;;;;;;;;1.63;72.85;100861.94;4983584;28;20408;-86
2022/01/27 12:00:26;;;;;;;;;;;;;;;1.60;72.73;100858.44;4984947;28;19956;-87
2022/01/27 12:03:01;;;;;;;;;;;;;;;1.64;72.92;100849.75;4983706;28;20043;-86
2022/01/27 12:05:27;;;;;;;;;;;;;;;1.62;72.94;100849.72;4984349;28;20391;-86
2022/01/27 12:08:11;;;;;;;;;;;;;;;1.60;72.75;100838.41;4985090;28;20381;-87
2022/01/27 12:10:41;;;;;;;;;;;;;;;1.62;72.65;100833.19;5002280;28;19922;-87
2022/01/27 12:13:45;;;;;;;;;;;;;;;1.66;72.40;100828.88;4983044;28;20331;-86
2022/01/27 12:19:01;;;;;;;;;;;;;;;1.63;72.28;100825.38;5002361;28;19918;-87
2022/01/27 12:21:35;;;;;;;;;;;;;;;1.69;72.24;100821.97;5008359;28;19961;-87
2022/01/27 12:24:13;;;;;;;;;;;;;;;1.69;72.45;100821.06;5008611;28;20331;-86
2022/01/27 12:27:02;;;;;;;;;;;;;;;1.65;72.26;100814.06;5008339;28;19926;-85
2022/01/27 12:29:32;;;;;;;;;;;;;;;1.69;72.26;100808.00;4994300;28;20384;-87
2022/01/27 12:31:59;;;;;;;;;;;;;;;1.70;71.94;100804.53;4991352;28;19972;-86
2022/01/27 12:34:25;;;;;;;;;;;;;;;1.85;71.66;100796.84;5007026;28;19964;-86
2022/01/27 12:36:56;;;;;;;;;;;;;;;1.81;71.28;100782.84;5008542;28;19921;-86
2022/01/27 12:39:22;;;;;;;;;;;;;;;1.84;70.92;100787.25;5009058;28;19924;-85
2022/01/27 12:41:49;;;;;;;;;;;;;;;1.78;70.84;100781.97;4990739;28;19918;-86
2022/01/27 12:44:14;;;;;;;;;;;;;;;1.84;70.83;100787.25;4988726;28;19918;-85
2022/01/27 12:46:59;;;;;;;;;;;;;;;1.80;71.11;100782.84;5008144;28;19924;-86
2022/01/27 12:49:36;;;;;;;;;;;;;;;1.83;71.27;100772.41;5008640;28;20004;-86
2022/01/27 12:52:06;;;;;;;;;;;;;;;2.21;74.37;100776.19;5007327;28;20036;-86
2022/01/27 12:54:31;;;;;;;;;;;;;;;2.41;77.65;100764.13;5007761;28;19918;-87
2022/01/27 12:56:56;;;;;;;;;;;;;;;2.51;79.98;100767.69;5007388;28;19929;-88
2022/01/27 12:59:22;;;;;;;;;;;;;;;2.57;82.07;100749.41;5007833;28;19964;-87
2022/01/27 13:01:59;;;;;;;;;;;;;;;2.60;83.67;100744.19;5008607;28;19945;-86
2022/01/27 13:04:25;;;;;;;;;;;;;;;2.61;84.99;100731.97;4991006;28;19918;-88
2022/01/27 13:06:51;;;;;;;;;;;;;;;2.61;86.48;100747.66;4990883;28;20365;-88
2022/01/27 13:09:16;;;;;;;;;;;;;;;2.56;87.78;100742.41;5008225;28;19925;-87
2022/01/27 13:11:42;;;;;;;;;;;;;;;2.56;89.25;100741.53;4990547;28;19917;-87
2022/01/27 13:14:08;;;;;;;;;;;;;;;2.56;90.37;100731.94;5007496;28;19928;-87
2022/01/27 13:16:44;;;;;;;;;;;;;;;2.56;91.75;100729.31;5005350;28;19985;-89
2022/01/27 13:19:32;;;;;;;;;;;;;;;2.52;93.25;100727.53;4989708;28;19925;-87
2022/01/27 13:22:01;;;;;;;;;;;;;;;2.59;94.96;100724.09;5007654;28;19923;-87
2022/01/27 13:24:28;;;;;;;;;;;;;;;2.63;96.64;100725.88;4987993;28;19921;-87
2022/01/27 13:27:07;;;;;;;;;;;;;;;2.85;98.64;100725.97;4988655;28;20281;-88
2022/01/27 13:29:40;;;;;;;;;;;;;;;3.04;100.00;100727.75;4992207;28;20278;-88
2022/01/27 13:32:06;;;;;;;;;;;;;;;3.21;100.00;100716.47;5001077;28;20292;-88
2022/01/27 13:34:32;;;;;;;;;;;;;;;3.31;100.00;100712.13;5001885;28;19918;-88
2022/01/27 13:37:01;;;;;;;;;;;;;;;3.40;100.00;100717.38;5000814;28;19918;-88
2022/01/27 13:41:53;;;;;;;;;;;;;;;3.53;100.00;100710.41;5003091;28;19922;-88
2022/01/27 13:44:19;;;;;;;;;;;;;;;3.56;100.00;100719.13;5001062;28;19927;-87
2022/01/27 13:46:55;;;;;;;;;;;;;;;3.60;100.00;100712.16;5004230;28;19932;-89
2022/01/27 13:49:36;;;;;;;;;;;;;;;3.65;100.00;100713.00;5002101;28;19932;-88
2022/01/27 13:52:13;;;;;;;;;;;;;;;3.71;100.00;100713.03;5003071;28;19922;-88
2022/01/27 13:54:40;;;;;;;;;;;;;;;3.76;100.00;100713.03;5003489;28;19921;-88
2022/01/27 13:57:10;;;;;;;;;;;;;;;3.80;100.00;100718.25;5004562;28;20361;-87
2022/01/27 13:59:55;;;;;;;;;;;;;;;3.85;100.00;100715.66;5003186;28;19968;-89
2022/01/27 14:02:23;;;;;;;;;;;;;;;3.87;100.00;100713.88;5003325;28;20084;-88
2022/01/27 14:05:00;;;;;;;;;;;;;;;3.90;100.00;100726.13;5003279;28;19929;-87
2022/01/27 14:07:26;;;;;;;;;;;;;;;3.96;100.00;100726.13;5004188;28;19960;-88
2022/01/27 14:09:54;;;;;;;;;;;;;;;3.98;100.00;100727.00;5003457;28;19922;-88
2022/01/27 14:12:24;;;;;;;;;;;;;;;4.00;100.00;100733.09;5004533;28;20419;-88
2022/01/27 14:14:51;;;;;;;;;;;;;;;4.04;100.00;100742.72;5001052;28;19917;-88
2022/01/27 14:17:19;;;;;;;;;;;;;;;4.08;100.00;100738.34;5004220;28;19918;-87
2022/01/27 14:19:44;;;;;;;;;;;;;;;4.09;100.00;100733.09;5002775;28;19922;-88
2022/01/27 14:22:13;;;;;;;;;;;;;;;4.12;100.00;100729.63;5003691;28;19936;-88
2022/01/27 14:24:57;;;;;;;;;;;;;;;4.21;100.00;100734.81;5018503;28;19921;-87
2022/01/27 14:27:31;;;;;;;;;;;;;;;3.57;100.00;100731.34;5001857;28;19914;-88
2022/01/27 14:29:56;;;;;;;;;;;;;;;2.93;100.00;100742.56;5017075;28;19948;-87
2022/01/27 14:32:40;;;;;;;;;;;;;;;2.77;100.00;100739.00;5004251;28;20380;-87
2022/01/27 14:35:07;;;;;;;;;;;;;;;2.64;100.00;100742.44;5004373;28;19921;-87
2022/01/27 14:37:34;;;;;;;;;;;;;;;2.54;100.00;100745.00;5002695;28;19936;-87
2022/01/27 14:40:00;;;;;;;;;;;;;;;2.47;99.22;100742.34;5003858;28;19918;-87
2022/01/27 14:42:26;;;;;;;;;;;;;;;2.45;98.25;100744.09;5001877;28;19918;-87
2022/01/27 14:44:51;;;;;;;;;;;;;;;2.38;97.13;100742.28;5001967;28;20410;-87
2022/01/27 14:47:17;;;;;;;;;;;;;;;2.38;96.38;100742.28;5003499;28;20019;-88
2022/01/27 14:49:45;;;;;;;;;;;;;;;2.34;95.63;100726.56;5001978;28;19921;-86
2022/01/27 14:52:13;;;;;;;;;;;;;;;2.33;94.62;100735.31;5003489;28;19944;-87
2022/01/27 14:54:39;;;;;;;;;;;;;;;2.25;94.10;100726.56;5003184;28;19926;-87
2022/01/27 14:57:04;;;;;;;;;;;;;;;2.16;93.39;100726.47;5002509;28;19924;-86
2022/01/27 14:59:29;;;;;;;;;;;;;;;2.16;92.84;100729.09;5001024;28;19924;-86
2022/01/27 15:01:55;;;;;;;;;;;;;;;2.18;92.39;100737.81;5003198;28;19968;-87
2022/01/27 15:04:20;;;;;;;;;;;;;;;2.12;91.45;100743.91;5003255;28;20300;-87
2022/01/27 15:06:45;;;;;;;;;;;;;;;2.03;91.19;100745.53;5003665;28;19917;-87
2022/01/27 15:09:12;;;;;;;;;;;;;;;2.03;90.79;100735.09;4997231;28;20484;-87
2022/01/27 15:11:38;;;;;;;;;;;;;;;1.98;90.06;100750.78;5001117;28;19944;-88
2022/01/27 15:18:48;;;;;;;;;;;;;;;1.99;89.89;100742.94;5002471;28;20008;-87
2022/01/27 15:19:37;;;;;;;;;;;;;;;1.91;88.53;100739.38;5003153;28;19924;-86
2022/01/27 15:22:06;;;;;;;;;;;;;;;1.85;88.27;100736.72;5001612;28;19925;-87
2022/01/27 15:24:31;;;;;;;;;;;;;;;1.79;87.68;100731.44;5003456;28;19927;-86
2022/01/27 15:26:57;;;;;;;;;;;;;;;2.02;87.49;100717.69;4996848;28;19918;-87
2022/01/27 15:29:23;;;;;;;;;;;;;;;1.86;87.58;100730.63;5001462;28;19983;-85
2022/01/27 15:31:49;;;;;;;;;;;;;;;1.85;87.51;100733.22;5002378;28;20436;-86
2022/01/27 15:34:14;;;;;;;;;;;;;;;1.79;87.10;100736.69;5002314;28;19918;-86
2022/01/27 15:36:39;;;;;;;;;;;;;;;1.82;86.65;100739.31;4984726;28;19929;-85
2022/01/27 15:39:06;;;;;;;;;;;;;;;1.73;86.23;100731.41;4985828;28;19917;-85
2022/01/27 15:41:32;;;;;;;;;;;;;;;1.75;86.05;100733.13;5002424;28;19921;-86
2022/01/27 15:43:58;;;;;;;;;;;;;;;1.67;85.70;100741.78;5000950;28;19925;-86
2022/01/27 15:46:25;;;;;;;;;;;;;;;1.69;85.45;100735.72;4985871;28;20316;-87
2022/01/27 15:48:51;;;;;;;;;;;;;;;1.67;85.18;100734.81;5001930;28;20359;-86
2022/01/27 15:51:16;;;;;;;;;;;;;;;1.60;85.10;100731.28;5002340;28;20012;-88
2022/01/27 15:53:41;;;;;;;;;;;;;;;1.61;85.02;100724.31;4984198;28;19918;-85
2022/01/27 15:56:07;;;;;;;;;;;;;;;1.51;84.97;100725.97;5002402;28;20327;-86
2022/01/27 15:58:32;;;;;;;;;;;;;;;1.49;84.95;100730.31;5001348;28;19924;-87
2022/01/27 16:00:58;;;;;;;;;;;;;;;1.47;85.02;100734.66;5002300;28;19926;-86
2022/01/27 16:03:23;;;;;;;;;;;;;;;1.61;84.99;100737.38;4984161;28;20390;-86
2022/01/27 16:05:48;;;;;;;;;;;;;;;1.49;84.61;100742.50;5001163;28;19964;-87
2022/01/27 16:08:14;;;;;;;;;;;;;;;1.51;84.55;100746.00;5002283;28;19921;-86
2022/01/27 16:10:39;;;;;;;;;;;;;;;1.54;84.37;100739.06;5001817;28;19918;-87
2022/01/27 16:13:04;;;;;;;;;;;;;;;1.39;84.38;100741.53;5001124;28;20616;-86
2022/01/27 16:15:30;;;;;;;;;;;;;;;1.37;84.41;100748.47;4983692;28;19953;-86
2022/01/27 16:17:55;;;;;;;;;;;;;;;1.46;84.44;100759.00;4984579;28;19918;-86
2022/01/27 16:20:22;;;;;;;;;;;;;;;1.49;84.10;100753.81;4985224;28;19924;-85
2022/01/27 16:22:49;;;;;;;;;;;;;;;1.41;84.04;100755.47;5002150;28;19918;-85
2022/01/27 16:25:15;;;;;;;;;;;;;;;1.39;84.05;100759.81;4982959;28;19929;-86
2022/01/27 16:27:40;;;;;;;;;;;;;;;1.37;84.18;100765.03;4983341;28;19921;-86
2022/01/27 16:30:07;;;;;;;;;;;;;;;1.43;84.27;100766.81;4991296;28;20000;-85
2022/01/27 16:32:32;;;;;;;;;;;;;;;1.42;84.22;100768.56;4997495;28;19925;-85
2022/01/27 16:34:58;;;;;;;;;;;;;;;1.39;83.92;100772.88;5001001;28;19988;-86
2022/01/27 16:37:23;;;;;;;;;;;;;;;1.45;83.68;100768.59;5001278;28;19930;-85
2022/01/27 16:39:48;;;;;;;;;;;;;;;1.29;83.55;100771.03;5000803;28;20421;-86
2022/01/27 16:42:14;;;;;;;;;;;;;;;1.26;83.61;100767.53;5000904;28;20333;-86
2022/01/27 16:44:39;;;;;;;;;;;;;;;1.37;83.58;100769.38;5015518;28;19921;-85
2022/01/27 16:47:05;;;;;;;;;;;;;;;1.31;83.58;100769.28;5000776;28;20423;-85
2022/01/27 16:49:30;;;;;;;;;;;;;;;1.33;83.34;100768.47;5000729;28;20008;-85
2022/01/27 16:51:55;;;;;;;;;;;;;;;1.37;83.11;100767.66;4999320;28;19922;-86
2022/01/27 16:54:21;;;;;;;;;;;;;;;1.23;83.31;100767.50;5001812;28;19956;-85
2022/01/27 16:56:46;;;;;;;;;;;;;;;1.29;83.34;100771.03;5001752;28;20000;-85
2022/01/27 16:59:12;;;;;;;;;;;;;;;1.30;83.40;100773.66;5000573;28;20276;-86
2022/01/27 17:01:37;;;;;;;;;;;;;;;1.22;83.47;100773.56;5001059;28;19917;-86
2022/01/27 17:04:02;;;;;;;;;;;;;;;1.26;83.28;100764.00;5002095;28;19926;-86
2022/01/27 17:06:29;;;;;;;;;;;;;;;1.19;83.40;100765.69;5002268;28;19933;-84
2022/01/27 17:08:54;;;;;;;;;;;;;;;1.21;83.36;100777.06;5004449;28;20305;-86
2022/01/27 17:11:19;;;;;;;;;;;;;;;1.26;83.30;100777.06;5005424;28;19917;-86
2022/01/27 17:13:44;;;;;;;;;;;;;;;1.19;82.98;100778.75;5003076;28;19925;-86
2022/01/27 17:16:12;;;;;;;;;;;;;;;1.19;82.85;100775.28;5002332;28;19925;-86
2022/01/27 17:18:38;;;;;;;;;;;;;;;1.14;82.70;100775.22;5004428;28;20021;-86
2022/01/27 17:21:04;;;;;;;;;;;;;;;1.19;82.98;100783.09;5005441;28;20023;-85
2022/01/27 17:23:35;;;;;;;;;;;;;;;1.18;82.93;100768.28;5003692;28;20328;-85
2022/01/27 17:26:00;;;;;;;;;;;;;;;1.17;82.70;100772.63;5004462;28;19921;-85
2022/01/27 17:28:25;;;;;;;;;;;;;;;1.18;83.08;100774.41;5000890;28;19960;-86
2022/01/27 17:30:51;;;;;;;;;;;;;;;1.11;82.91;100777.78;5003417;28;19921;-86
2022/01/27 17:33:16;;;;;;;;;;;;;;;1.21;82.65;100783.97;5003484;28;20373;-84
2022/01/27 17:35:41;;;;;;;;;;;;;;;1.09;82.53;100784.72;4987660;28;19953;-85
2022/01/27 17:38:07;;;;;;;;;;;;;;;1.11;82.43;100782.13;5004389;28;19978;-86
2022/01/27 17:40:33;;;;;;;;;;;;;;;1.17;82.94;100772.63;5005202;28;20006;-85
2022/01/27 17:43:05;;;;;;;;;;;;;;;1.19;82.67;100783.09;5001523;28;19930;-86
2022/01/27 17:45:33;;;;;;;;;;;;;;;1.13;82.57;100780.41;5003707;28;20403;-87
2022/01/27 17:47:58;;;;;;;;;;;;;;;1.11;82.54;100783.00;5004418;28;20019;-86
2022/01/27 17:50:25;;;;;;;;;;;;;;;1.08;82.54;100788.19;4986591;28;20975;-86
2022/01/27 17:52:51;;;;;;;;;;;;;;;1.06;82.62;100790.78;4986838;28;20451;-85
2022/01/27 17:55:17;;;;;;;;;;;;;;;1.12;82.46;100790.00;4986306;28;19960;-86
2022/01/27 17:57:42;;;;;;;;;;;;;;;1.05;82.42;100798.59;4986635;28;19932;-86
2022/01/27 18:00:09;;;;;;;;;;;;;;;1.10;82.74;100786.47;5001857;28;19921;-86
2022/01/27 18:02:34;;;;;;;;;;;;;;;1.09;82.50;100789.97;5004031;28;19922;-85
2022/01/27 18:04:59;;;;;;;;;;;;;;;1.17;82.75;100783.09;4984506;28;19926;-86
2022/01/27 18:07:25;;;;;;;;;;;;;;;1.09;82.44;100779.50;5004555;28;19925;-85
2022/01/27 18:09:51;;;;;;;;;;;;;;;1.09;82.32;100777.78;4985412;28;19932;-85
2022/01/27 18:12:16;;;;;;;;;;;;;;;1.14;82.32;100776.97;5004276;28;20004;-85
2022/01/27 18:14:42;;;;;;;;;;;;;;;1.12;82.08;100774.31;5003316;28;19972;-85
2022/01/27 18:17:08;;;;;;;;;;;;;;;1.06;81.79;100775.13;5003588;28;19944;-86
2022/01/27 18:19:33;;;;;;;;;;;;;;;1.10;81.73;100778.63;4986184;28;19922;-86
2022/01/27 18:21:58;;;;;;;;;;;;;;;1.04;81.74;100782.06;5003521;28;19929;-85
2022/01/27 18:24:24;;;;;;;;;;;;;;;1.03;82.03;100782.91;5002317;28;20362;-86
2022/01/27 18:26:49;;;;;;;;;;;;;;;1.08;82.15;100782.97;5003775;28;20000;-86
2022/01/27 18:29:14;;;;;;;;;;;;;;;1.03;81.98;100779.44;5001330;28;19925;-86
2022/01/27 18:31:40;;;;;;;;;;;;;;;1.09;81.79;100776.91;5001995;28;19961;-86
2022/01/27 18:34:05;;;;;;;;;;;;;;;1.11;81.72;100785.63;5001749;28;19926;-86
2022/01/27 18:36:30;;;;;;;;;;;;;;;1.06;81.58;100792.53;5003561;28;20363;-87
2022/01/27 18:38:55;;;;;;;;;;;;;;;1.06;81.55;100797.75;5000887;28;19930;-88
2022/01/27 18:41:21;;;;;;;;;;;;;;;1.07;81.59;100802.13;4986155;28;20005;-85
2022/01/27 18:43:46;;;;;;;;;;;;;;;1.11;81.26;100809.13;5001327;28;19921;-85
2022/01/27 18:46:12;;;;;;;;;;;;;;;1.07;80.96;100809.94;5002865;28;19925;-85
2022/01/27 18:48:39;;;;;;;;;;;;;;;1.09;80.58;100795.19;4986934;28;20289;-85
2022/01/27 18:51:06;;;;;;;;;;;;;;;1.12;80.41;100795.22;5002309;28;19933;-85
2022/01/27 18:53:32;;;;;;;;;;;;;;;1.06;80.43;100805.56;5002005;28;20285;-86
2022/01/27 18:55:57;;;;;;;;;;;;;;;1.10;80.42;100812.56;4986389;28;19921;-86
2022/01/27 18:58:22;;;;;;;;;;;;;;;1.13;80.46;100806.53;4984568;28;19932;-85
2022/01/27 19:00:48;;;;;;;;;;;;;;;1.07;80.34;100807.34;5002777;28;19925;-85
2022/01/27 19:03:13;;;;;;;;;;;;;;;1.10;80.08;100804.75;4985668;28;19925;-85
2022/01/27 19:05:42;;;;;;;;;;;;;;;1.04;79.96;100809.91;4984646;28;19925;-86
2022/01/27 19:08:08;;;;;;;;;;;;;;;1.04;79.86;100808.16;5002664;28;19925;-87
2022/01/27 19:10:34;;;;;;;;;;;;;;;1.03;80.04;100803.78;5001290;28;19928;-85
2022/01/27 19:13:01;;;;;;;;;;;;;;;1.08;80.29;100809.94;4984806;28;20004;-85
2022/01/27 19:15:27;;;;;;;;;;;;;;;1.08;79.87;100816.91;5002102;28;20435;-86
2022/01/27 19:17:52;;;;;;;;;;;;;;;1.11;79.84;100819.56;5000357;28;20004;-85
2022/01/27 19:20:20;;;;;;;;;;;;;;;1.15;79.58;100810.91;4999192;28;20047;-86
2022/01/27 19:22:46;;;;;;;;;;;;;;;1.16;79.30;100822.22;5001623;28;20389;-85
2022/01/27 19:25:11;;;;;;;;;;;;;;;1.12;79.58;100815.19;5000368;28;19921;-85
2022/01/27 19:27:37;;;;;;;;;;;;;;;1.06;79.34;100822.09;5002278;28;20312;-84
2022/01/27 19:30:05;;;;;;;;;;;;;;;1.07;79.61;100820.41;5006834;28;19921;-85
2022/01/27 19:32:30;;;;;;;;;;;;;;;1.06;79.65;100832.53;5001087;28;20472;-85
2022/01/27 19:34:56;;;;;;;;;;;;;;;1.01;79.75;100834.22;5002411;28;20016;-85
2022/01/27 19:37:23;;;;;;;;;;;;;;;1.07;79.85;100843.88;5000921;28;19921;-85
2022/01/27 19:39:48;;;;;;;;;;;;;;;1.08;79.87;100853.44;5000095;28;19925;-85
2022/01/27 19:42:13;;;;;;;;;;;;;;;1.02;79.76;100859.50;5001230;28;19991;-86
2022/01/27 19:44:39;;;;;;;;;;;;;;;1.00;79.54;100852.47;5001220;28;19928;-85
2022/01/27 19:47:04;;;;;;;;;;;;;;;1.01;79.60;100859.47;5001114;28;20265;-86
2022/01/27 19:49:30;;;;;;;;;;;;;;;1.03;79.57;100853.38;5001763;28;20309;-85
2022/01/27 19:51:59;;;;;;;;;;;;;;;1.03;79.29;100857.75;5001780;28;19921;-86
2022/01/27 19:54:25;;;;;;;;;;;;;;;0.99;79.22;100854.22;5000260;28;19922;-87
2022/01/27 19:56:51;;;;;;;;;;;;;;;0.98;79.23;100846.38;5001098;28;19926;-86
2022/01/27 19:59:16;;;;;;;;;;;;;;;1.04;79.12;100834.28;4999086;28;19980;-85
2022/01/27 20:01:41;;;;;;;;;;;;;;;1.01;78.92;100844.66;5002938;28;19969;-87
2022/01/27 20:04:08;;;;;;;;;;;;;;;1.03;79.12;100847.31;5000455;28;20008;-86
2022/01/27 20:06:34;;;;;;;;;;;;;;;1.01;79.06;100843.81;5000132;28;19934;-87
2022/01/27 20:08:59;;;;;;;;;;;;;;;1.01;78.86;100846.41;5001508;28;19922;-86
2022/01/27 20:11:25;;;;;;;;;;;;;;;1.02;78.69;100862.09;5000436;28;19952;-86
2022/01/27 20:13:53;;;;;;;;;;;;;;;1.03;78.72;100852.53;4999587;28;19932;-86
2022/01/27 20:16:24;;;;;;;;;;;;;;;1.01;78.44;100859.47;5000390;28;19972;-86
2022/01/27 20:18:50;;;;;;;;;;;;;;;1.03;78.48;100853.38;4998493;28;19932;-85
2022/01/27 20:21:15;;;;;;;;;;;;;;;1.00;78.24;100860.31;5001589;28;20289;-85
2022/01/27 20:23:40;;;;;;;;;;;;;;;1.04;78.12;100864.72;5001323;28;19925;-84
2022/01/27 20:26:05;;;;;;;;;;;;;;;1.04;78.27;100846.47;5000049;28;19965;-84
2022/01/27 20:28:32;;;;;;;;;;;;;;;1.04;78.16;100859.50;4999582;28;20348;-85
2022/01/27 20:30:57;;;;;;;;;;;;;;;1.05;78.33;100866.47;5001873;28;20428;-85
2022/01/27 20:33:23;;;;;;;;;;;;;;;1.06;78.46;100852.56;5000660;28;20016;-86
2022/01/27 20:35:48;;;;;;;;;;;;;;;1.08;78.31;100856.06;5002233;28;19925;-85
2022/01/27 20:38:14;;;;;;;;;;;;;;;1.06;78.19;100863.00;5001391;28;20427;-85